Time;durP1;ratioP1;P1;durP2;ratioP2;P2;SDS_P1;SDS_P2;PMS_P1;PMS_P2;Temp;Humidity;BMP_temperature;BMP_pressure;BME280_temperature;BME280_humidity;BME280_pressure;Samples;Min_cycle;Max_cycle;Signal;HPM_P1;HPM_P2
2023/11/08 00:00:14;;;;;;;9.20;7.00;;;;;;;9.29;100.00;97047.28;110482;1238;68662;-65
2023/11/08 00:03:08;;;;;;;8.90;6.70;;;;;;;9.33;100.00;97047.38;110367;1241;69302;-65
2023/11/08 00:05:39;;;;;;;8.70;6.30;;;;;;;9.35;100.00;97042.17;110335;1242;60492;-66
2023/11/08 00:08:11;;;;;;;8.80;5.90;;;;;;;9.36;100.00;97038.92;110536;1239;60482;-65
2023/11/08 00:10:44;;;;;;;7.00;5.40;;;;;;;9.37;100.00;97034.75;110495;1238;72382;-66
2023/11/08 00:13:19;;;;;;;;;;;;;;;9.40;100.00;97040.58;110536;1241;69182;-65
2023/11/08 00:15:50;;;;;;;6.00;4.10;;;;;;;9.40;100.00;97041.60;110456;1241;69435;-65
2023/11/08 00:18:22;;;;;;;6.50;4.60;;;;;;;9.43;100.00;97032.56;110611;1245;60538;-65
2023/11/08 00:21:00;;;;;;;5.90;4.00;;;;;;;9.46;100.00;97021.88;110390;1238;60473;-66
2023/11/08 00:23:33;;;;;;;7.20;4.40;;;;;;;9.51;100.00;97013.36;110434;1238;72535;-66
2023/11/08 00:26:04;;;;;;;7.10;4.40;;;;;;;9.54;99.40;97003.20;110463;1242;68644;-65
2023/11/08 00:28:37;;;;;;;5.30;3.90;;;;;;;9.57;98.74;97001.41;110378;1238;69143;-64
2023/11/08 00:31:10;;;;;;;5.60;3.90;;;;;;;9.59;99.22;97002.48;110514;1241;60479;-65
2023/11/08 00:33:42;;;;;;;6.30;4.00;;;;;;;9.60;99.94;96999.73;110321;1242;60434;-65
2023/11/08 00:36:15;;;;;;;4.80;3.50;;;;;;;9.63;99.95;96991.21;110365;1240;70481;-65
2023/11/08 00:38:51;;;;;;;5.80;3.90;;;;;;;9.65;98.83;96994.31;110445;1240;68599;-65
2023/11/08 00:41:24;;;;;;;4.20;3.50;;;;;;;9.68;98.55;96994.14;110533;1240;69804;-65
2023/11/08 00:43:58;;;;;;;7.20;3.70;;;;;;;9.71;99.47;96989.21;110367;1240;60567;-65
2023/11/08 00:46:32;;;;;;;9.60;6.80;;;;;;;9.71;100.00;96986.94;110347;1242;60517;-67
2023/11/08 00:49:12;;;;;;;9.30;6.20;;;;;;;9.66;100.00;96985.07;110378;1242;72238;-64
2023/11/08 00:51:47;;;;;;;11.20;8.00;;;;;;;9.60;100.00;96983.23;110452;1240;69210;-65
2023/11/08 00:54:21;;;;;;;11.00;7.20;;;;;;;9.56;100.00;96992.93;110403;1241;68628;-66
2023/11/08 00:57:00;;;;;;;9.10;7.20;;;;;;;9.52;100.00;96986.82;110533;1242;60418;-64
2023/11/08 00:59:41;;;;;;;7.00;5.30;;;;;;;9.49;100.00;96975.95;110373;1242;60525;-64
2023/11/08 01:02:18;;;;;;;7.80;5.60;;;;;;;9.47;100.00;96984.41;110352;1238;72399;-65
2023/11/08 01:04:51;;;;;;;12.80;9.10;;;;;;;9.46;100.00;96977.52;110500;1240;69271;-64
2023/11/08 01:07:26;;;;;;;9.80;8.00;;;;;;;9.42;100.00;96974.73;110396;1238;67484;-65
2023/11/08 01:09:58;;;;;;;11.00;7.60;;;;;;;9.36;100.00;96968.34;110416;1241;60539;-65
2023/11/08 01:12:35;;;;;;;12.80;9.60;;;;;;;9.32;100.00;96968.68;110571;1241;60569;-65
2023/11/08 01:15:12;;;;;;;13.80;9.50;;;;;;;9.28;100.00;96967.89;110388;1241;72187;-65
2023/11/08 01:17:55;;;;;;;13.20;9.80;;;;;;;9.26;100.00;96968.13;110327;1242;69493;-65
2023/11/08 01:20:26;;;;;;;14.00;9.20;;;;;;;9.24;100.00;96956.56;110376;1242;68809;-65
2023/11/08 01:22:58;;;;;;;11.30;8.40;;;;;;;9.22;100.00;96958.11;110309;1241;60483;-65
2023/11/08 01:25:36;;;;;;;11.20;7.20;;;;;;;9.22;100.00;96951.89;110379;1240;60474;-65
2023/11/08 01:28:11;;;;;;;8.50;6.20;;;;;;;9.24;100.00;96951.38;110369;1240;71457;-65
2023/11/08 01:30:45;;;;;;;8.60;6.70;;;;;;;9.24;100.00;96949.13;110381;1238;68774;-66
2023/11/08 01:33:25;;;;;;;8.00;6.00;;;;;;;9.23;100.00;96944.10;110442;1240;69110;-66
2023/11/08 01:36:00;;;;;;;7.70;5.00;;;;;;;9.24;100.00;96956.77;110298;1238;60470;-64
2023/11/08 01:38:35;;;;;;;6.80;4.60;;;;;;;9.26;100.00;96955.92;110570;1240;60429;-65
2023/11/08 01:41:12;;;;;;;6.20;4.30;;;;;;;9.28;100.00;96952.27;110417;1242;72163;-66
2023/11/08 01:43:46;;;;;;;6.00;4.10;;;;;;;9.28;100.00;96941.70;110380;1241;69101;-65
2023/11/08 01:46:26;;;;;;;6.50;4.70;;;;;;;9.30;100.00;96929.55;110463;1242;69267;-65
2023/11/08 01:48:59;;;;;;;5.50;4.40;;;;;;;9.29;100.00;96930.48;110445;1242;60475;-65
2023/11/08 01:51:40;;;;;;;5.80;3.60;;;;;;;9.29;100.00;96942.13;110417;1240;60479;-66
2023/11/08 01:54:21;;;;;;;6.80;4.40;;;;;;;9.29;100.00;96942.62;110379;1242;72252;-66
2023/11/08 01:57:00;;;;;;;5.00;3.50;;;;;;;9.30;100.00;96941.86;110377;1242;69237;-65
2023/11/08 01:59:36;;;;;;;5.20;3.80;;;;;;;9.30;100.00;96945.67;110392;1242;69485;-64
2023/11/08 02:02:11;;;;;;;6.40;3.60;;;;;;;9.35;100.00;96938.89;110415;1238;60514;-66
2023/11/08 02:04:49;;;;;;;5.50;3.30;;;;;;;9.33;100.00;96943.52;110375;1241;60507;-65
2023/11/08 02:07:26;;;;;;;4.10;3.10;;;;;;;9.35;100.00;96947.23;110368;1243;71595;-64
2023/11/08 02:10:08;;;;;;;5.80;3.60;;;;;;;9.38;100.00;96949.55;110422;1242;69326;-64
2023/11/08 02:12:44;;;;;;;;;;;;;;;9.44;100.00;96952.11;110415;1241;68967;-64
2023/11/08 02:15:24;;;;;;;4.50;2.70;;;;;;;9.54;100.00;96951.02;110480;1238;60540;-65
2023/11/08 02:18:04;;;;;;;6.40;3.20;;;;;;;9.61;100.00;96953.92;110374;1241;60537;-67
2023/11/08 02:20:45;;;;;;;5.10;3.20;;;;;;;9.68;100.00;96958.48;110349;1238;72242;-67
2023/11/08 02:23:20;;;;;;;6.50;3.70;;;;;;;9.72;100.00;96962.52;110372;1240;68795;-64
2023/11/08 02:25:55;;;;;;;4.90;3.00;;;;;;;9.75;100.00;96967.70;110380;1240;69288;-66
2023/11/08 02:28:33;;;;;;;4.70;3.10;;;;;;;9.77;100.00;96970.88;110405;1241;60446;-66
2023/11/08 02:31:08;;;;;;;5.80;3.30;;;;;;;9.77;100.00;96975.58;110399;1241;60496;-64
2023/11/08 02:33:47;;;;;;;6.90;3.30;;;;;;;9.74;100.00;96968.41;110404;1242;72259;-64
2023/11/08 02:36:25;;;;;;;6.20;3.90;;;;;;;9.72;100.00;96975.06;110420;1242;69538;-65
2023/11/08 02:39:02;;;;;;;4.60;3.40;;;;;;;9.68;100.00;96977.44;110453;1240;68605;-65
2023/11/08 02:41:38;;;;;;;5.20;3.40;;;;;;;9.65;100.00;96978.50;110551;1241;60534;-66
2023/11/08 02:44:11;;;;;;;5.50;3.90;;;;;;;9.64;100.00;96973.02;110524;1239;60466;-67
2023/11/08 02:46:47;;;;;;;8.20;4.30;;;;;;;9.63;100.00;96970.01;110653;1242;72186;-64
2023/11/08 02:49:20;;;;;;;6.60;4.80;;;;;;;9.61;100.00;96969.62;110433;1242;69294;-65
2023/11/08 02:51:51;;;;;;;6.60;4.50;;;;;;;9.60;100.00;96963.10;110477;1241;67522;-65
2023/11/08 02:54:27;;;;;;;5.70;4.70;;;;;;;9.59;100.00;96956.21;110515;1240;60499;-67
2023/11/08 02:57:03;;;;;;;4.80;3.90;;;;;;;9.57;100.00;96954.77;110572;1240;60939;-66
2023/11/08 02:59:36;;;;;;;6.00;3.80;;;;;;;9.58;100.00;96963.92;110550;1240;72176;-66
2023/11/08 03:02:07;;;;;;;5.80;4.10;;;;;;;9.58;100.00;96972.95;110527;1241;69090;-65
2023/11/08 03:04:41;;;;;;;7.60;4.90;;;;;;;9.59;100.00;96971.15;110522;1241;69372;-66
2023/11/08 03:07:13;;;;;;;7.10;4.40;;;;;;;9.57;100.00;96970.61;110489;1242;60485;-65
2023/11/08 03:09:46;;;;;;;7.10;4.80;;;;;;;9.53;100.00;96962.90;110498;1242;60497;-66
2023/11/08 03:12:19;;;;;;;6.70;4.30;;;;;;;9.48;100.00;96963.62;110494;1245;71247;-66
2023/11/08 03:14:52;;;;;;;7.00;4.60;;;;;;;9.46;100.00;96962.23;110612;1242;68497;-65
2023/11/08 03:17:26;;;;;;;6.50;4.60;;;;;;;9.46;100.00;96965.05;110560;1241;68499;-66
2023/11/08 03:19:58;;;;;;;4.20;3.60;;;;;;;9.45;100.00;96977.63;110347;1241;60537;-67
2023/11/08 03:22:35;;;;;;;5.90;4.50;;;;;;;9.42;100.00;96983.77;110567;1242;60551;-66
2023/11/08 03:25:13;;;;;;;8.30;4.60;;;;;;;9.40;100.00;96993.23;110609;1241;71675;-66
2023/11/08 03:27:46;;;;;;;5.00;3.60;;;;;;;9.38;100.00;97000.54;110383;1241;69307;-66
2023/11/08 03:30:20;;;;;;;5.20;3.60;;;;;;;9.38;100.00;97014.33;110441;1242;69299;-66
2023/11/08 03:32:51;;;;;;;6.20;4.10;;;;;;;9.32;100.00;97014.41;110371;1242;60548;-66
2023/11/08 03:35:22;;;;;;;6.60;3.70;;;;;;;9.15;100.00;97013.38;110405;1242;60478;-65
2023/11/08 03:37:54;;;;;;;7.00;4.00;;;;;;;9.11;100.00;97012.63;110462;1242;72278;-66
2023/11/08 03:40:26;;;;;;;8.60;4.10;;;;;;;9.10;100.00;97007.45;110400;1242;68495;-65
2023/11/08 03:42:58;;;;;;;6.60;3.80;;;;;;;9.25;100.00;97003.29;110479;1240;69160;-65
2023/11/08 03:45:28;;;;;;;5.00;3.30;;;;;;;9.37;100.00;96996.14;110400;1240;60471;-65
2023/11/08 03:47:59;;;;;;;6.60;3.80;;;;;;;9.40;100.00;96991.89;110427;1241;60463;-65
2023/11/08 03:50:31;;;;;;;4.80;3.30;;;;;;;9.42;100.00;96993.49;110410;1242;72787;-65
2023/11/08 03:53:06;;;;;;;5.60;3.30;;;;;;;9.33;100.00;96991.01;110371;1242;69676;-65
2023/11/08 03:55:39;;;;;;;8.00;3.90;;;;;;;9.32;100.00;96983.25;110539;1245;69602;-65
2023/11/08 03:58:12;;;;;;;6.80;4.20;;;;;;;9.39;100.00;96976.34;110374;1241;60467;-65
2023/11/08 04:00:45;;;;;;;8.80;5.20;;;;;;;9.38;100.00;96979.15;110451;1242;60541;-65
2023/11/08 04:03:18;;;;;;;8.10;4.00;;;;;;;9.37;100.00;96972.27;110558;1242;73052;-64
2023/11/08 04:05:52;;;;;;;6.50;3.90;;;;;;;9.37;100.00;96972.83;110374;1242;68345;-67
2023/11/08 04:08:26;;;;;;;7.10;4.10;;;;;;;9.37;100.00;96967.21;110421;1242;67626;-64
2023/11/08 04:10:58;;;;;;;5.40;4.20;;;;;;;9.39;100.00;96960.81;110495;1245;60456;-64
2023/11/08 04:13:29;;;;;;;6.20;4.00;;;;;;;9.39;100.00;96959.82;110414;1242;60499;-66
2023/11/08 04:16:02;;;;;;;6.20;3.60;;;;;;;9.38;100.00;96959.70;110396;1241;71211;-65
2023/11/08 04:18:35;;;;;;;6.40;4.20;;;;;;;9.38;100.00;96955.16;110468;1242;69794;-65
2023/11/08 04:21:05;;;;;;;5.30;3.80;;;;;;;9.37;100.00;96956.30;110397;1242;69560;-65
2023/11/08 04:23:35;;;;;;;6.00;4.00;;;;;;;9.35;100.00;96964.61;110376;1242;60502;-65
2023/11/08 04:26:06;;;;;;;;;;;;;;;9.34;100.00;96967.46;110614;1242;60541;-64
2023/11/08 04:28:42;;;;;;;4.90;3.60;;;;;;;9.34;100.00;96973.58;110494;1243;72194;-65
2023/11/08 04:31:15;;;;;;;5.50;3.60;;;;;;;9.34;100.00;96980.70;110417;1243;69628;-64
2023/11/08 04:33:46;;;;;;;6.60;4.60;;;;;;;9.33;100.00;96974.15;110483;1241;68568;-64
2023/11/08 04:36:18;;;;;;;7.10;4.60;;;;;;;9.32;100.00;96976.12;110311;1242;60481;-64
2023/11/08 04:38:50;;;;;;;5.50;4.10;;;;;;;9.27;100.00;96980.20;110371;1244;60539;-65
2023/11/08 04:41:23;;;;;;;4.60;3.60;;;;;;;9.27;100.00;96981.05;110540;1246;71224;-64
2023/11/08 04:43:53;;;;;;;5.00;3.30;;;;;;;9.27;100.00;96982.77;110517;1249;68434;-64
2023/11/08 04:46:24;;;;;;;5.70;4.00;;;;;;;9.29;100.00;96979.68;110370;1244;69710;-65
2023/11/08 04:48:56;;;;;;;5.80;4.10;;;;;;;9.30;100.00;96967.98;110321;1242;60502;-65
2023/11/08 04:51:27;;;;;;;5.40;3.50;;;;;;;9.31;100.00;96961.82;110423;1242;60498;-65
2023/11/08 04:53:57;;;;;;;7.40;4.10;;;;;;;9.32;100.00;96966.26;110478;1241;72407;-65
2023/11/08 04:56:28;;;;;;;6.90;4.10;;;;;;;9.32;100.00;96959.42;110558;1247;69905;-65
2023/11/08 04:58:57;;;;;;;6.30;3.50;;;;;;;9.33;100.00;96956.09;110483;1240;69745;-65
2023/11/08 05:01:28;;;;;;;;;;;;;;;9.33;100.00;96958.14;110361;1240;60538;-64
2023/11/08 05:04:00;;;;;;;6.60;4.30;;;;;;;9.33;100.00;96962.66;110368;1243;60467;-66
2023/11/08 05:06:30;;;;;;;7.30;3.70;;;;;;;9.35;100.00;96960.43;110400;1241;72875;-64
2023/11/08 05:09:01;;;;;;;4.60;2.90;;;;;;;9.37;100.00;96960.06;110541;1241;68566;-65
2023/11/08 05:11:32;;;;;;;5.60;3.90;;;;;;;9.39;100.00;96946.91;110468;1242;69631;-65
2023/11/08 05:14:03;;;;;;;5.10;3.20;;;;;;;9.40;100.00;96946.80;110459;1245;60483;-66
2023/11/08 05:16:33;;;;;;;4.90;3.50;;;;;;;9.42;100.00;96946.02;110501;1242;60463;-64
2023/11/08 05:19:05;;;;;;;6.20;3.50;;;;;;;9.43;100.00;96947.16;110455;1244;72219;-64
2023/11/08 05:21:37;;;;;;;5.20;3.30;;;;;;;9.43;100.00;96952.33;110596;1238;68487;-66
2023/11/08 05:24:07;;;;;;;5.70;3.90;;;;;;;9.44;100.00;96943.21;110444;1241;69300;-64
2023/11/08 05:26:36;;;;;;;8.20;3.40;;;;;;;9.46;100.00;96946.21;110410;1241;60547;-64
2023/11/08 05:29:06;;;;;;;4.80;3.90;;;;;;;9.47;100.00;96947.52;110482;1241;60514;-64
2023/11/08 05:31:36;;;;;;;12.10;7.70;;;;;;;9.47;100.00;96947.34;110449;1242;71986;-64
2023/11/08 05:34:07;;;;;;;11.30;8.60;;;;;;;9.47;100.00;96940.58;110382;1245;68996;-65
2023/11/08 05:36:37;;;;;;;12.40;7.80;;;;;;;9.45;100.00;96937.23;110579;1238;69839;-66
2023/11/08 05:39:06;;;;;;;9.80;6.50;;;;;;;9.44;100.00;96940.80;110448;1238;60536;-66
2023/11/08 05:41:36;;;;;;;7.90;6.00;;;;;;;9.45;100.00;96951.02;110486;1241;60549;-65
2023/11/08 05:44:08;;;;;;;9.80;5.40;;;;;;;9.44;100.00;96954.01;110427;1242;72244;-65
2023/11/08 05:46:37;;;;;;;7.40;5.40;;;;;;;9.45;100.00;96954.48;110390;1241;69803;-64
2023/11/08 05:49:10;;;;;;;7.50;4.40;;;;;;;9.46;100.00;96963.46;110372;1240;69233;-67
2023/11/08 05:51:40;;;;;;;8.20;4.80;;;;;;;9.44;100.00;96967.93;110465;1244;60539;-65
2023/11/08 05:54:10;;;;;;;7.50;4.80;;;;;;;9.45;100.00;96976.42;110464;1241;60537;-65
2023/11/08 05:56:41;;;;;;;5.90;4.30;;;;;;;9.46;100.00;96981.20;110456;1240;71469;-67
2023/11/08 05:59:11;;;;;;;4.70;3.40;;;;;;;9.47;100.00;96982.52;110391;1241;69825;-65
2023/11/08 06:01:40;;;;;;;5.30;3.70;;;;;;;9.49;100.00;96985.18;110339;1241;68952;-65
2023/11/08 06:04:09;;;;;;;5.40;3.50;;;;;;;9.51;100.00;96985.71;110342;1245;60882;-64
2023/11/08 06:06:39;;;;;;;4.30;2.90;;;;;;;9.54;100.00;96988.44;110376;1238;60440;-64
2023/11/08 06:09:10;;;;;;;4.10;3.10;;;;;;;9.57;100.00;96989.05;110363;1243;72203;-65
2023/11/08 06:11:39;;;;;;;4.10;2.90;;;;;;;9.59;100.00;96986.92;110575;1243;68199;-65
2023/11/08 06:14:10;;;;;;;7.10;4.00;;;;;;;9.62;100.00;96990.58;110488;1249;69597;-65
2023/11/08 06:16:40;;;;;;;5.30;3.50;;;;;;;9.65;100.00;96990.48;110311;1240;60538;-65
2023/11/08 06:19:10;;;;;;;5.50;4.10;;;;;;;9.67;100.00;96989.13;110383;1241;60881;-65
2023/11/08 06:21:40;;;;;;;5.40;3.60;;;;;;;9.69;100.00;96985.16;110418;1241;72761;-65
2023/11/08 06:24:10;;;;;;;6.00;4.00;;;;;;;9.71;100.00;96993.40;110363;1247;69821;-65
2023/11/08 06:26:40;;;;;;;7.80;4.60;;;;;;;9.72;100.00;96992.13;110446;1242;69316;-65
2023/11/08 06:29:09;;;;;;;7.80;5.00;;;;;;;9.70;100.00;96990.46;110525;1242;60557;-65
2023/11/08 06:31:40;;;;;;;6.20;4.20;;;;;;;9.72;100.00;96996.30;110426;1238;60541;-65
2023/11/08 06:34:09;;;;;;;7.80;4.90;;;;;;;9.73;100.00;96995.71;110448;1244;72212;-65
2023/11/08 06:36:39;;;;;;;5.80;4.20;;;;;;;9.73;100.00;97006.63;110384;1245;68900;-65
2023/11/08 06:39:14;;;;;;;7.10;4.50;;;;;;;9.72;100.00;97010.56;110331;1243;69317;-65
2023/11/08 06:41:43;;;;;;;5.90;4.30;;;;;;;9.74;100.00;97021.39;110566;1245;60473;-66
2023/11/08 06:44:13;;;;;;;5.10;4.10;;;;;;;9.75;100.00;97026.69;110503;1242;60430;-66
2023/11/08 06:46:43;;;;;;;6.00;4.10;;;;;;;9.76;100.00;97030.60;110368;1242;71991;-65
2023/11/08 06:49:12;;;;;;;7.30;4.30;;;;;;;9.78;100.00;97033.75;110367;1245;69796;-65
2023/11/08 06:51:42;;;;;;;6.60;4.10;;;;;;;9.79;100.00;97029.11;110362;1238;68363;-65
2023/11/08 06:54:12;;;;;;;6.50;4.10;;;;;;;9.80;100.00;97024.36;110542;1241;60554;-65
2023/11/08 06:56:43;;;;;;;11.60;5.70;;;;;;;9.81;100.00;97025.03;110491;1240;60446;-65
2023/11/08 06:59:13;;;;;;;5.90;3.60;;;;;;;9.82;100.00;97026.15;110357;1244;72593;-66
2023/11/08 07:01:42;;;;;;;;;;;;;;;9.83;100.00;97025.21;110378;1241;67457;-65
2023/11/08 07:04:12;;;;;;;6.20;3.90;;;;;;;9.86;100.00;97023.23;110397;1241;68336;-65
2023/11/08 07:06:42;;;;;;;5.60;3.40;;;;;;;9.89;100.00;97021.25;110546;1241;60466;-65
2023/11/08 07:09:14;;;;;;;;;;;;;;;9.94;100.00;97022.97;110392;1242;60491;-67
2023/11/08 07:11:44;;;;;;;8.50;5.60;;;;;;;9.99;100.00;97028.48;110531;1242;71379;-65
2023/11/08 07:14:14;;;;;;;;;;;;;;;10.03;100.00;97033.23;110403;1240;68390;-65
2023/11/08 07:16:44;;;;;;;7.60;5.50;;;;;;;10.05;100.00;97029.27;110440;1242;68232;-65
2023/11/08 07:19:13;;;;;;;;;;;;;;;10.07;100.00;97023.54;110418;1241;60482;-65
2023/11/08 07:21:45;;;;;;;8.90;5.50;;;;;;;10.08;100.00;97027.64;110364;1248;60521;-65
2023/11/08 07:24:16;;;;;;;6.70;4.50;;;;;;;10.08;100.00;97024.67;110510;1243;72146;-65
2023/11/08 07:26:47;;;;;;;7.30;4.40;;;;;;;10.04;100.00;97024.86;110523;1241;69827;-67
2023/11/08 07:29:17;;;;;;;6.70;4.60;;;;;;;10.03;100.00;97017.25;110397;1242;69895;-65
2023/11/08 07:31:46;;;;;;;6.70;4.10;;;;;;;10.02;100.00;97012.92;110412;1238;60495;-65
2023/11/08 07:34:15;;;;;;;6.30;4.30;;;;;;;10.04;100.00;97011.41;110408;1242;60475;-65
2023/11/08 07:36:45;;;;;;;4.80;3.60;;;;;;;10.05;100.00;97010.30;110508;1242;72102;-65
2023/11/08 07:39:15;;;;;;;;;;;;;;;10.06;100.00;97012.11;110465;1243;69691;-65
2023/11/08 07:41:55;;;;;;;;;;;;;;;10.09;100.00;97008.78;110476;1247;69077;-65
2023/11/08 07:44:24;;;;;;;9.00;5.00;;;;;;;10.12;100.00;97009.94;110426;1242;60480;-65
2023/11/08 07:46:55;;;;;;;6.00;4.10;;;;;;;10.15;100.00;97015.77;110504;1241;60432;-65
2023/11/08 07:49:24;;;;;;;6.40;4.10;;;;;;;10.18;100.00;97011.84;110249;1249;72290;-66
2023/11/08 07:51:53;;;;;;;7.20;4.20;;;;;;;10.23;100.00;97012.23;110213;1242;69158;-65
2023/11/08 07:54:23;;;;;;;5.20;4.40;;;;;;;10.26;100.00;97010.60;110189;1243;69219;-66
2023/11/08 07:56:52;;;;;;;6.60;4.00;;;;;;;10.30;100.00;97017.13;110185;1244;60478;-66
2023/11/08 07:59:22;;;;;;;7.20;4.90;;;;;;;10.30;100.00;97019.55;110182;1243;60463;-65
2023/11/08 08:01:51;;;;;;;5.50;4.60;;;;;;;10.27;100.00;97028.85;110199;1242;72233;-65
2023/11/08 08:04:20;;;;;;;6.10;4.10;;;;;;;10.26;100.00;97026.66;110181;1243;69336;-67
2023/11/08 08:06:50;;;;;;;5.60;4.10;;;;;;;10.28;100.00;97032.02;110152;1241;69872;-66
2023/11/08 08:09:19;;;;;;;5.90;4.10;;;;;;;10.30;100.00;97030.35;110168;1242;60496;-67
2023/11/08 08:11:50;;;;;;;6.10;4.30;;;;;;;10.29;100.00;97032.67;110143;1242;60491;-67
2023/11/08 08:14:21;;;;;;;6.50;4.80;;;;;;;10.29;100.00;97037.16;110135;1241;72415;-66
2023/11/08 08:16:51;;;;;;;9.50;5.60;;;;;;;10.24;100.00;97035.47;110170;1242;69838;-67
2023/11/08 08:19:22;;;;;;;9.40;6.60;;;;;;;10.29;100.00;97033.58;110112;1242;70101;-65
2023/11/08 08:21:53;;;;;;;10.50;7.40;;;;;;;10.24;100.00;97043.16;110194;1241;60604;-65
2023/11/08 08:24:22;;;;;;;8.60;6.50;;;;;;;10.25;100.00;97050.39;110166;1241;60489;-65
2023/11/08 08:26:51;;;;;;;9.10;6.30;;;;;;;10.23;100.00;97055.23;110173;1242;71318;-66
2023/11/08 08:29:22;;;;;;;11.80;7.40;;;;;;;10.26;100.00;97048.02;110148;1243;69109;-67
2023/11/08 08:31:52;;;;;;;8.50;6.40;;;;;;;10.28;100.00;97041.45;110113;1243;69304;-65
2023/11/08 08:34:23;;;;;;;9.30;7.30;;;;;;;10.33;100.00;97047.66;110122;1242;60513;-65
2023/11/08 08:36:59;;;;;;;10.50;7.40;;;;;;;10.33;100.00;97034.63;110165;1243;60894;-67
2023/11/08 08:39:28;;;;;;;11.70;9.00;;;;;;;10.39;100.00;97030.47;110141;1242;72883;-65
2023/11/08 08:41:58;;;;;;;11.10;7.90;;;;;;;10.46;100.00;97027.16;110138;1240;68501;-65
2023/11/08 08:44:28;;;;;;;11.50;7.80;;;;;;;10.56;100.00;97030.90;110099;1242;69268;-66
2023/11/08 08:46:58;;;;;;;12.80;7.30;;;;;;;10.72;100.00;97029.48;110199;1241;60544;-67
2023/11/08 08:49:27;;;;;;;14.10;9.40;;;;;;;10.90;100.00;97036.59;110161;1245;60402;-65
2023/11/08 08:51:57;;;;;;;10.60;7.40;;;;;;;10.97;100.00;97047.89;110122;1242;71954;-65
2023/11/08 08:54:26;;;;;;;8.50;6.40;;;;;;;11.02;100.00;97054.98;110121;1241;68432;-67
2023/11/08 08:56:58;;;;;;;11.60;8.80;;;;;;;11.10;100.00;97053.79;110169;1243;69266;-65
2023/11/08 08:59:28;;;;;;;12.70;8.20;;;;;;;11.19;100.00;97059.70;110145;1242;60547;-63
2023/11/08 09:01:57;;;;;;;11.50;8.20;;;;;;;11.33;100.00;97058.04;110165;1242;60553;-65
2023/11/08 09:04:26;;;;;;;12.40;9.10;;;;;;;11.56;100.00;97059.66;110174;1242;72120;-66
2023/11/08 09:06:56;;;;;;;13.50;9.50;;;;;;;11.69;100.00;97059.77;110195;1241;69167;-65
2023/11/08 09:09:26;;;;;;;11.80;8.20;;;;;;;11.83;100.00;97060.61;110127;1241;68639;-64
2023/11/08 09:11:55;;;;;;;12.70;8.90;;;;;;;11.97;100.00;97068.80;110140;1240;60497;-66
2023/11/08 09:14:24;;;;;;;12.90;9.20;;;;;;;12.16;100.00;97061.95;110188;1241;60499;-65
2023/11/08 09:16:54;;;;;;;12.00;8.80;;;;;;;12.43;100.00;97057.07;110154;1243;71284;-65
2023/11/08 09:19:24;;;;;;;12.40;8.20;;;;;;;12.55;100.00;97052.34;109745;1243;506390;-65
2023/11/08 09:21:53;;;;;;;12.40;8.30;;;;;;;12.63;100.00;97046.28;110115;1242;68383;-65
2023/11/08 09:24:22;;;;;;;10.00;7.20;;;;;;;12.55;100.00;97049.05;110119;1242;60518;-65
2023/11/08 09:26:52;;;;;;;10.70;8.30;;;;;;;12.43;100.00;97055.10;110149;1242;60473;-65
2023/11/08 09:29:24;;;;;;;8.40;7.50;;;;;;;12.39;100.00;97057.41;110129;1241;72739;-66
2023/11/08 09:31:56;;;;;;;10.30;7.70;;;;;;;12.38;100.00;97068.19;110174;1242;69478;-66
2023/11/08 09:34:24;;;;;;;12.30;7.20;;;;;;;12.42;100.00;97062.96;110108;1243;68301;-65
2023/11/08 09:36:56;;;;;;;9.10;7.40;;;;;;;12.59;100.00;97062.31;110174;1240;60534;-66
2023/11/08 09:39:29;;;;;;;10.90;7.60;;;;;;;12.78;100.00;97062.21;110166;1240;60551;-65
2023/11/08 09:41:58;;;;;;;9.50;7.30;;;;;;;12.61;100.00;97067.41;110168;1241;71496;-67
2023/11/08 09:44:28;;;;;;;16.10;11.10;;;;;;;12.64;100.00;97063.99;110153;1242;69229;-67
2023/11/08 09:46:58;;;;;;;15.10;10.90;;;;;;;12.67;100.00;97064.26;110147;1242;69255;-65
2023/11/08 09:49:27;;;;;;;17.60;11.90;;;;;;;12.69;100.00;97063.90;110130;1245;60492;-65
2023/11/08 09:51:57;;;;;;;21.80;14.40;;;;;;;12.44;100.00;97072.19;110202;1241;60496;-66
2023/11/08 09:54:26;;;;;;;21.60;12.50;;;;;;;12.56;100.00;97068.33;110194;1242;71236;-66
2023/11/08 09:56:58;;;;;;;18.70;12.90;;;;;;;12.72;100.00;97057.83;110159;1243;69493;-65
2023/11/08 09:59:31;;;;;;;20.80;12.40;;;;;;;12.74;100.00;97049.31;110145;1241;69774;-66
2023/11/08 10:02:05;;;;;;;17.50;12.10;;;;;;;12.84;100.00;97041.11;110127;1240;60510;-66
2023/11/08 10:04:35;;;;;;;16.90;12.60;;;;;;;12.71;100.00;97038.21;110188;1242;60484;-68
2023/11/08 10:07:17;;;;;;;15.60;11.80;;;;;;;12.66;100.00;97041.98;110146;1240;72786;-67
2023/11/08 10:09:47;;;;;;;15.90;11.90;;;;;;;12.55;100.00;97044.70;110195;1241;69192;-66
2023/11/08 10:12:20;;;;;;;15.30;13.10;;;;;;;12.42;100.00;97045.39;110145;1241;68796;-65
2023/11/08 10:15:02;;;;;;;12.30;10.10;;;;;;;12.45;100.00;97048.30;110171;1241;60475;-67
2023/11/08 10:17:40;;;;;;;12.20;8.90;;;;;;;12.55;100.00;97037.88;110253;1242;60586;-67
2023/11/08 10:20:34;;;;;;;11.60;8.60;;;;;;;12.66;100.00;97013.46;110156;1242;72645;-67
2023/11/08 10:23:07;;;;;;;9.40;7.30;;;;;;;12.77;100.00;97007.58;110193;1243;68656;-65
2023/11/08 10:25:37;;;;;;;11.80;8.40;;;;;;;12.91;100.00;97002.36;110101;1244;68509;-68
2023/11/08 10:28:09;;;;;;;12.90;8.50;;;;;;;13.02;100.00;96990.74;110133;1249;60483;-67
2023/11/08 10:30:41;;;;;;;9.60;8.30;;;;;;;13.06;100.00;96995.77;110183;1240;60433;-66
2023/11/08 10:33:13;;;;;;;8.60;7.20;;;;;;;13.15;100.00;97003.18;110144;1242;72992;-65
2023/11/08 10:35:43;;;;;;;9.40;7.80;;;;;;;13.28;100.00;97010.30;110187;1242;68171;-66
2023/11/08 10:38:15;;;;;;;7.90;7.10;;;;;;;13.35;100.00;97006.16;110163;1240;68536;-66
2023/11/08 10:40:45;;;;;;;8.10;6.90;;;;;;;13.41;100.00;97004.52;110154;1242;60605;-66
2023/11/08 10:43:20;;;;;;;9.60;8.50;;;;;;;13.42;100.00;97008.27;110162;1241;60510;-66
2023/11/08 10:45:49;;;;;;;8.50;7.50;;;;;;;13.39;100.00;97010.83;110146;1242;71295;-67
2023/11/08 10:48:23;;;;;;;10.30;8.90;;;;;;;13.44;100.00;97021.04;110165;1242;69803;-65
2023/11/08 10:50:55;;;;;;;9.30;8.30;;;;;;;13.51;100.00;97017.80;110195;1243;69331;-67
2023/11/08 10:53:28;;;;;;;9.90;8.60;;;;;;;13.70;100.00;97011.47;110175;1240;60557;-66
2023/11/08 10:56:01;;;;;;;9.40;8.40;;;;;;;13.88;100.00;97010.23;110197;1242;60483;-66
2023/11/08 10:58:35;;;;;;;9.60;7.90;;;;;;;13.91;100.00;97005.75;110179;1241;72114;-66
2023/11/08 11:01:06;;;;;;;9.70;7.10;;;;;;;13.94;100.00;96998.84;110196;1241;69226;-66
2023/11/08 11:03:41;;;;;;;9.30;7.70;;;;;;;13.82;100.00;96999.18;110136;1240;69228;-66
2023/11/08 11:06:12;;;;;;;9.50;8.10;;;;;;;13.46;100.00;96995.85;110134;1240;60480;-66
2023/11/08 11:08:45;;;;;;;11.10;8.00;;;;;;;13.20;100.00;96997.35;110181;1241;60507;-66
2023/11/08 11:11:15;;;;;;;8.70;7.30;;;;;;;13.34;100.00;97007.77;110159;1242;72026;-65
2023/11/08 11:13:57;;;;;;;8.40;6.40;;;;;;;13.53;100.00;97002.26;110164;1240;69786;-65
2023/11/08 11:16:30;;;;;;;7.90;6.50;;;;;;;13.63;100.00;97005.83;110161;1242;69835;-67
2023/11/08 11:19:11;;;;;;;10.40;6.80;;;;;;;13.65;100.00;96994.31;110183;1242;60551;-67
2023/11/08 11:21:45;;;;;;;9.20;7.20;;;;;;;13.69;100.00;96993.04;110203;1241;60475;-66
2023/11/08 11:24:32;;;;;;;9.50;8.40;;;;;;;13.63;100.00;96998.85;110145;1243;72732;-66
2023/11/08 11:27:03;;;;;;;10.30;8.30;;;;;;;13.58;100.00;97000.69;110214;1242;69256;-67
2023/11/08 11:29:32;;;;;;;;;;;;;;;13.40;100.00;97012.30;110153;1242;69880;-67
2023/11/08 11:32:06;;;;;;;9.70;7.20;;;;;;;13.33;100.00;97009.30;110182;1242;60554;-63
2023/11/08 11:34:37;;;;;;;10.10;7.20;;;;;;;13.05;100.00;97013.36;110170;1242;60426;-66
2023/11/08 11:37:18;;;;;;;9.50;8.00;;;;;;;12.80;100.00;97004.34;110187;1241;72218;-66
2023/11/08 11:39:52;;;;;;;7.20;6.40;;;;;;;12.70;100.00;97003.96;110189;1241;68666;-66
2023/11/08 11:42:25;;;;;;;10.40;7.40;;;;;;;12.50;100.00;97020.31;110150;1242;69262;-66
2023/11/08 11:44:57;;;;;;;9.30;6.30;;;;;;;12.42;100.00;97017.00;110197;1241;60561;-66